sensor_id;sensor_type;location;lat;lon;timestamp;pressure;altitude;pressure_sealevel;temperature;humidity
77281;BME280;66339;47.262;17.144;2024-02-26T00:37:36;99213.28;;;19.85;48.09
77281;BME280;66339;47.262;17.144;2024-02-26T00:46:04;99203.63;;;19.84;48.13
77281;BME280;66339;47.262;17.144;2024-02-26T01:11:52;99188.94;;;19.81;48.00
77281;BME280;66339;47.262;17.144;2024-02-26T01:17:47;99184.66;;;19.80;47.91
77281;BME280;66339;47.262;17.144;2024-02-26T01:23:35;99182.28;;;19.79;47.93
77281;BME280;66339;47.262;17.144;2024-02-26T01:29:22;99184.50;;;19.77;47.96
77281;BME280;66339;47.262;17.144;2024-02-26T01:46:27;99162.03;;;19.73;48.00
77281;BME280;66339;47.262;17.144;2024-02-26T01:51:59;99155.09;;;19.72;47.99
77281;BME280;66339;47.262;17.144;2024-02-26T01:57:17;99154.31;;;19.71;47.94
77281;BME280;66339;47.262;17.144;2024-02-26T02:17:16;99151.75;;;19.66;48.00
77281;BME280;66339;47.262;17.144;2024-02-26T02:19:44;99150.97;;;19.66;48.04
77281;BME280;66339;47.262;17.144;2024-02-26T02:22:11;99139.44;;;19.65;48.08
77281;BME280;66339;47.262;17.144;2024-02-26T02:36:07;99143.19;;;19.64;47.98
77281;BME280;66339;47.262;17.144;2024-02-26T04:50:07;99135.28;;;19.45;47.89
77281;BME280;66339;47.262;17.144;2024-02-26T05:01:11;99130.75;;;19.46;47.86
77281;BME280;66339;47.262;17.144;2024-02-26T05:03:38;99129.94;;;19.45;47.90
77281;BME280;66339;47.262;17.144;2024-02-26T05:06:06;99113.84;;;19.45;47.85
77281;BME280;66339;47.262;17.144;2024-02-26T05:23:09;99116.84;;;19.44;47.90
77281;BME280;66339;47.262;17.144;2024-02-26T05:25:35;99127.56;;;19.44;47.87
77281;BME280;66339;47.262;17.144;2024-02-26T05:31:03;99125.19;;;19.42;47.85
77281;BME280;66339;47.262;17.144;2024-02-26T05:36:27;99122.53;;;19.42;47.84
77281;BME280;66339;47.262;17.144;2024-02-26T05:38:58;99126.28;;;19.41;47.94
77281;BME280;66339;47.262;17.144;2024-02-26T05:41:25;99128.16;;;19.41;47.81
77281;BME280;66339;47.262;17.144;2024-02-26T05:43:59;99126.28;;;19.41;47.82
77281;BME280;66339;47.262;17.144;2024-02-26T05:52:08;99123.59;;;19.41;47.93
77281;BME280;66339;47.262;17.144;2024-02-26T06:06:17;99149.44;;;19.37;48.10
77281;BME280;66339;47.262;17.144;2024-02-26T06:08:47;99157.00;;;19.35;48.19
77281;BME280;66339;47.262;17.144;2024-02-26T06:34:40;99165.44;;;19.28;48.65
77281;BME280;66339;47.262;17.144;2024-02-26T06:37:08;99163.56;;;19.29;46.64
77281;BME280;66339;47.262;17.144;2024-02-26T06:39:37;99171.34;;;19.17;46.53
77281;BME280;66339;47.262;17.144;2024-02-26T06:47:55;99188.00;;;19.13;48.34
77281;BME280;66339;47.262;17.144;2024-02-26T06:50:25;99183.47;;;19.14;48.23
77281;BME280;66339;47.262;17.144;2024-02-26T07:07:34;99171.06;;;19.18;47.92
77281;BME280;66339;47.262;17.144;2024-02-26T07:10:04;99176.09;;;19.20;47.98
77281;BME280;66339;47.262;17.144;2024-02-26T07:12:31;99179.09;;;19.18;48.58
77281;BME280;66339;47.262;17.144;2024-02-26T07:15:02;99180.34;;;19.21;48.18
77281;BME280;66339;47.262;17.144;2024-02-26T07:17:33;99180.88;;;19.23;48.07
77281;BME280;66339;47.262;17.144;2024-02-26T07:20:00;99182.75;;;19.22;48.08
77281;BME280;66339;47.262;17.144;2024-02-26T07:22:31;99183.53;;;19.23;48.07
77281;BME280;66339;47.262;17.144;2024-02-26T07:24:58;99182.44;;;19.24;48.16
77281;BME280;66339;47.262;17.144;2024-02-26T07:27:25;99183.22;;;19.24;48.26
77281;BME280;66339;47.262;17.144;2024-02-26T07:29:54;99184.03;;;19.25;48.33
77281;BME280;66339;47.262;17.144;2024-02-26T07:32:24;99179.44;;;19.25;48.51
77281;BME280;66339;47.262;17.144;2024-02-26T07:34:54;99177.59;;;19.26;48.57
77281;BME280;66339;47.262;17.144;2024-02-26T07:37:23;99186.09;;;19.28;48.55
77281;BME280;66339;47.262;17.144;2024-02-26T07:39:53;99186.09;;;19.28;48.56
77281;BME280;66339;47.262;17.144;2024-02-26T07:42:23;99183.44;;;19.28;48.54
77281;BME280;66339;47.262;17.144;2024-02-26T07:44:50;99179.63;;;19.29;48.51
77281;BME280;66339;47.262;17.144;2024-02-26T07:47:20;99186.59;;;19.30;48.51
77281;BME280;66339;47.262;17.144;2024-02-26T07:49:49;99179.63;;;19.29;48.57
77281;BME280;66339;47.262;17.144;2024-02-26T07:52:16;99176.97;;;19.29;48.94
77281;BME280;66339;47.262;17.144;2024-02-26T07:54:45;99180.44;;;19.29;48.99
77281;BME280;66339;47.262;17.144;2024-02-26T07:57:12;99173.69;;;19.32;49.02
77281;BME280;66339;47.262;17.144;2024-02-26T07:59:42;99179.03;;;19.32;49.31
77281;BME280;66339;47.262;17.144;2024-02-26T08:02:09;99180.63;;;19.33;50.36
77281;BME280;66339;47.262;17.144;2024-02-26T08:04:35;99176.88;;;19.34;50.46
77281;BME280;66339;47.262;17.144;2024-02-26T08:07:08;99173.88;;;19.35;50.45
77281;BME280;66339;47.262;17.144;2024-02-26T08:09:35;99178.13;;;19.36;50.95
77281;BME280;66339;47.262;17.144;2024-02-26T08:12:02;99179.44;;;19.39;50.94
77281;BME280;66339;47.262;17.144;2024-02-26T08:14:28;99177.53;;;19.40;51.01
77281;BME280;66339;47.262;17.144;2024-02-26T08:16:58;99170.28;;;19.40;51.05
77281;BME280;66339;47.262;17.144;2024-02-26T08:19:28;99178.03;;;19.42;51.06
77281;BME280;66339;47.262;17.144;2024-02-26T08:21:55;99176.94;;;19.43;51.23
77281;BME280;66339;47.262;17.144;2024-02-26T08:24:28;99180.88;;;19.45;51.28
77281;BME280;66339;47.262;17.144;2024-02-26T08:26:55;99175.25;;;19.47;51.35
77281;BME280;66339;47.262;17.144;2024-02-26T08:29:22;99175.72;;;19.49;51.40
77281;BME280;66339;47.262;17.144;2024-02-26T08:31:48;99181.91;;;19.49;51.52
77281;BME280;66339;47.262;17.144;2024-02-26T08:34:15;99178.91;;;19.51;51.75
77281;BME280;66339;47.262;17.144;2024-02-26T08:36:42;99176.69;;;19.53;51.87
77281;BME280;66339;47.262;17.144;2024-02-26T08:39:13;99176.41;;;19.54;52.10
77281;BME280;66339;47.262;17.144;2024-02-26T08:41:44;99182.75;;;19.58;52.61
77281;BME280;66339;47.262;17.144;2024-02-26T08:44:13;99181.34;;;19.61;52.55
77281;BME280;66339;47.262;17.144;2024-02-26T08:46:40;99177.00;;;19.65;52.63
77281;BME280;66339;47.262;17.144;2024-02-26T08:49:07;99180.16;;;19.67;52.68
77281;BME280;66339;47.262;17.144;2024-02-26T08:51:34;99183.63;;;19.68;52.77
77281;BME280;66339;47.262;17.144;2024-02-26T08:54:04;99191.06;;;19.71;52.36
77281;BME280;66339;47.262;17.144;2024-02-26T08:56:30;99176.56;;;19.72;52.61
77281;BME280;66339;47.262;17.144;2024-02-26T08:59:03;99179.75;;;19.74;52.65
77281;BME280;66339;47.262;17.144;2024-02-26T09:01:36;99190.94;;;19.76;52.38
77281;BME280;66339;47.262;17.144;2024-02-26T09:04:09;99189.06;;;19.76;52.69
77281;BME280;66339;47.262;17.144;2024-02-26T09:06:36;99189.88;;;19.77;52.88
77281;BME280;66339;47.262;17.144;2024-02-26T09:09:02;99184.50;;;19.77;53.13
77281;BME280;66339;47.262;17.144;2024-02-26T09:11:30;99191.13;;;19.79;54.55
77281;BME280;66339;47.262;17.144;2024-02-26T09:13:57;99202.56;;;19.85;55.17
77281;BME280;66339;47.262;17.144;2024-02-26T09:16:24;99196.56;;;19.88;55.17
77281;BME280;66339;47.262;17.144;2024-02-26T09:18:56;99189.47;;;19.92;55.13
77281;BME280;66339;47.262;17.144;2024-02-26T09:21:26;99195.34;;;19.94;52.87
77281;BME280;66339;47.262;17.144;2024-02-26T09:23:53;99188.88;;;19.95;50.06
77281;BME280;66339;47.262;17.144;2024-02-26T09:26:22;99195.34;;;19.94;51.84
77281;BME280;66339;47.262;17.144;2024-02-26T09:28:52;99192.66;;;19.94;52.37
77281;BME280;66339;47.262;17.144;2024-02-26T09:31:22;99206.56;;;19.96;52.47
77281;BME280;66339;47.262;17.144;2024-02-26T09:33:48;99194.75;;;19.97;52.14
77281;BME280;66339;47.262;17.144;2024-02-26T09:36:21;99187.16;;;19.99;52.21
77281;BME280;66339;47.262;17.144;2024-02-26T09:38:48;99187.66;;;20.01;52.25
77281;BME280;66339;47.262;17.144;2024-02-26T09:41:27;99188.13;;;20.03;52.21
77281;BME280;66339;47.262;17.144;2024-02-26T09:43:55;99187.53;;;20.06;52.17
77281;BME280;66339;47.262;17.144;2024-02-26T09:46:26;99193.87;;;20.10;52.03
77281;BME280;66339;47.262;17.144;2024-02-26T09:48:52;99193.25;;;20.14;51.81
77281;BME280;66339;47.262;17.144;2024-02-26T09:51:23;99184.59;;;20.17;51.60
77281;BME280;66339;47.262;17.144;2024-02-26T09:53:56;99183.19;;;20.19;51.27
77281;BME280;66339;47.262;17.144;2024-02-26T09:56:31;99187.16;;;20.22;51.31
77281;BME280;66339;47.262;17.144;2024-02-26T09:58:58;99192.69;;;20.25;51.24
77281;BME280;66339;47.262;17.144;2024-02-26T10:01:25;99185.94;;;20.28;51.20
77281;BME280;66339;47.262;17.144;2024-02-26T10:03:54;99185.78;;;20.33;51.17
77281;BME280;66339;47.262;17.144;2024-02-26T10:06:28;99182.78;;;20.34;50.76
77281;BME280;66339;47.262;17.144;2024-02-26T10:08:56;99182.97;;;20.38;50.83
77281;BME280;66339;47.262;17.144;2024-02-26T10:11:25;99191.50;;;20.40;50.67
77281;BME280;66339;47.262;17.144;2024-02-26T10:13:53;99187.72;;;20.41;50.62
77281;BME280;66339;47.262;17.144;2024-02-26T10:16:20;99191.69;;;20.44;50.28
77281;BME280;66339;47.262;17.144;2024-02-26T10:18:53;99190.25;;;20.46;50.15
77281;BME280;66339;47.262;17.144;2024-02-26T10:21:25;99190.75;;;20.48;49.99
77281;BME280;66339;47.262;17.144;2024-02-26T10:23:55;99183.19;;;20.50;49.87
77281;BME280;66339;47.262;17.144;2024-02-26T10:26:28;99194.44;;;20.52;49.50
77281;BME280;66339;47.262;17.144;2024-02-26T10:28:55;99196.03;;;20.53;48.73
77281;BME280;66339;47.262;17.144;2024-02-26T10:31:28;99190.66;;;20.53;49.25
77281;BME280;66339;47.262;17.144;2024-02-26T10:33:55;99202.97;;;20.54;49.68
77281;BME280;66339;47.262;17.144;2024-02-26T10:36:28;99194.63;;;20.56;49.87
77281;BME280;66339;47.262;17.144;2024-02-26T10:39:13;99193.97;;;20.59;49.96
77281;BME280;66339;47.262;17.144;2024-02-26T10:41:40;99195.25;;;20.62;50.04
77281;BME280;66339;47.262;17.144;2024-02-26T10:44:11;99182.00;;;20.65;50.02
77281;BME280;66339;47.262;17.144;2024-02-26T10:46:44;99177.41;;;20.66;50.11
77281;BME280;66339;47.262;17.144;2024-02-26T10:49:13;99178.37;;;20.70;50.07
77281;BME280;66339;47.262;17.144;2024-02-26T10:51:41;99182.34;;;20.72;50.17
77281;BME280;66339;47.262;17.144;2024-02-26T10:54:10;99174.75;;;20.74;50.13
77281;BME280;66339;47.262;17.144;2024-02-26T10:56:39;99175.53;;;20.75;50.17
77281;BME280;66339;47.262;17.144;2024-02-26T10:59:10;99176.34;;;20.75;50.13
77281;BME280;66339;47.262;17.144;2024-02-26T11:01:43;99167.97;;;20.77;50.07
77281;BME280;66339;47.262;17.144;2024-02-26T11:04:10;99169.56;;;20.78;50.10
77281;BME280;66339;47.262;17.144;2024-02-26T11:06:40;99161.97;;;20.80;50.19
77281;BME280;66339;47.262;17.144;2024-02-26T11:09:13;99165.94;;;20.82;50.18
77281;BME280;66339;47.262;17.144;2024-02-26T11:11:47;99157.06;;;20.82;50.19
77281;BME280;66339;47.262;17.144;2024-02-26T11:14:14;99158.34;;;20.84;50.22
77281;BME280;66339;47.262;17.144;2024-02-26T11:16:42;99144.59;;;20.86;50.22
77281;BME280;66339;47.262;17.144;2024-02-26T11:19:09;99152.38;;;20.88;50.15
77281;BME280;66339;47.262;17.144;2024-02-26T11:21:40;99160.59;;;20.91;50.03
77281;BME280;66339;47.262;17.144;2024-02-26T11:24:13;99154.09;;;20.92;49.96
77281;BME280;66339;47.262;17.144;2024-02-26T11:26:52;99151.88;;;20.94;50.03
77281;BME280;66339;47.262;17.144;2024-02-26T11:29:25;99154.56;;;20.94;50.03
77281;BME280;66339;47.262;17.144;2024-02-26T11:31:52;99145.88;;;20.97;50.06
77281;BME280;66339;47.262;17.144;2024-02-26T11:34:22;99149.69;;;20.96;50.01
77281;BME280;66339;47.262;17.144;2024-02-26T11:36:52;99144.78;;;20.98;49.97
77281;BME280;66339;47.262;17.144;2024-02-26T11:39:24;99144.47;;;21.00;50.00
77281;BME280;66339;47.262;17.144;2024-02-26T11:41:52;99145.25;;;21.00;50.04
77281;BME280;66339;47.262;17.144;2024-02-26T11:44:40;99146.84;;;21.01;50.21
77281;BME280;66339;47.262;17.144;2024-02-26T11:47:12;99135.47;;;21.04;50.37
77281;BME280;66339;47.262;17.144;2024-02-26T11:49:42;99137.03;;;21.05;50.36
77281;BME280;66339;47.262;17.144;2024-02-26T11:52:09;99135.13;;;21.06;50.30
77281;BME280;66339;47.262;17.144;2024-02-26T11:57:21;99131.66;;;21.05;50.22
77281;BME280;66339;47.262;17.144;2024-02-26T11:59:49;99128.69;;;21.07;50.26
77281;BME280;66339;47.262;17.144;2024-02-26T12:05:01;99125.50;;;21.05;50.25
77281;BME280;66339;47.262;17.144;2024-02-26T12:07:32;99122.50;;;21.06;50.17
77281;BME280;66339;47.262;17.144;2024-02-26T12:10:20;99124.09;;;21.07;50.09
77281;BME280;66339;47.262;17.144;2024-02-26T12:12:47;99123.31;;;21.07;50.05
77281;BME280;66339;47.262;17.144;2024-02-26T12:15:15;99117.13;;;21.06;50.01
77281;BME280;66339;47.262;17.144;2024-02-26T12:17:42;99118.72;;;21.07;49.96
77281;BME280;66339;47.262;17.144;2024-02-26T12:20:17;99120.28;;;21.08;49.92
77281;BME280;66339;47.262;17.144;2024-02-26T12:22:45;99125.66;;;21.08;49.84
77281;BME280;66339;47.262;17.144;2024-02-26T12:25:13;99121.84;;;21.09;49.77
77281;BME280;66339;47.262;17.144;2024-02-26T12:27:42;99126.44;;;21.09;49.72
77281;BME280;66339;47.262;17.144;2024-02-26T12:30:12;99120.28;;;21.08;49.66
77281;BME280;66339;47.262;17.144;2024-02-26T12:32:45;99128.34;;;21.08;49.59
77281;BME280;66339;47.262;17.144;2024-02-26T12:35:12;99125.66;;;21.08;49.53
77281;BME280;66339;47.262;17.144;2024-02-26T12:37:42;99127.88;;;21.06;49.54
77281;BME280;66339;47.262;17.144;2024-02-26T12:40:13;99121.69;;;21.06;49.48
77281;BME280;66339;47.262;17.144;2024-02-26T12:42:40;99119.00;;;21.06;49.42
77281;BME280;66339;47.262;17.144;2024-02-26T12:45:11;99113.62;;;21.06;49.40
77281;BME280;66339;47.262;17.144;2024-02-26T12:47:44;99119.00;;;21.06;49.35
77281;BME280;66339;47.262;17.144;2024-02-26T12:50:14;99120.91;;;21.05;49.31
77281;BME280;66339;47.262;17.144;2024-02-26T12:52:45;99117.13;;;21.06;49.13
77281;BME280;66339;47.262;17.144;2024-02-26T12:55:17;99124.72;;;21.04;46.97
77281;BME280;66339;47.262;17.144;2024-02-26T12:57:47;99126.91;;;21.02;45.21
77281;BME280;66339;47.262;17.144;2024-02-26T13:00:20;99123.59;;;20.97;44.23
77281;BME280;66339;47.262;17.144;2024-02-26T13:02:48;99126.13;;;20.93;43.92
77281;BME280;66339;47.262;17.144;2024-02-26T13:05:20;99125.66;;;20.91;45.04
77281;BME280;66339;47.262;17.144;2024-02-26T13:07:47;99129.41;;;20.90;46.23
77281;BME280;66339;47.262;17.144;2024-02-26T13:10:14;99122.19;;;20.91;46.40
77281;BME280;66339;47.262;17.144;2024-02-26T13:12:44;99120.91;;;20.88;46.54
77281;BME280;66339;47.262;17.144;2024-02-26T13:15:18;99127.84;;;20.89;46.65
77281;BME280;66339;47.262;17.144;2024-02-26T13:17:49;99135.91;;;20.89;46.79
77281;BME280;66339;47.262;17.144;2024-02-26T13:20:26;99138.91;;;20.88;46.90
77281;BME280;66339;47.262;17.144;2024-02-26T13:23:04;99133.53;;;20.88;47.00
77281;BME280;66339;47.262;17.144;2024-02-26T13:25:31;99135.44;;;20.87;47.06
77281;BME280;66339;47.262;17.144;2024-02-26T13:28:14;99133.06;;;20.86;47.14
77281;BME280;66339;47.262;17.144;2024-02-26T13:30:41;99136.06;;;20.84;47.38
77281;BME280;66339;47.262;17.144;2024-02-26T13:33:09;99138.44;;;20.86;47.39
77281;BME280;66339;47.262;17.144;2024-02-26T13:35:36;99140.31;;;20.85;47.54
77281;BME280;66339;47.262;17.144;2024-02-26T13:38:03;99145.72;;;20.85;47.55
77281;BME280;66339;47.262;17.144;2024-02-26T13:40:29;99145.72;;;20.85;47.59
77281;BME280;66339;47.262;17.144;2024-02-26T13:42:56;99141.44;;;20.84;47.59
77281;BME280;66339;47.262;17.144;2024-02-26T13:45:25;99152.81;;;20.81;43.03
77281;BME280;66339;47.262;17.144;2024-02-26T13:47:59;99144.56;;;20.77;41.66
77281;BME280;66339;47.262;17.144;2024-02-26T13:50:27;99147.72;;;20.71;40.19
77281;BME280;66339;47.262;17.144;2024-02-26T13:52:54;99150.56;;;20.66;38.82
77281;BME280;66339;47.262;17.144;2024-02-26T13:55:21;99154.97;;;20.62;38.39
77281;BME280;66339;47.262;17.144;2024-02-26T13:57:55;99155.56;;;20.58;37.55
77281;BME280;66339;47.262;17.144;2024-02-26T14:00:22;99149.25;;;20.54;37.87
77281;BME280;66339;47.262;17.144;2024-02-26T14:02:48;99153.03;;;20.53;38.65
77281;BME280;66339;47.262;17.144;2024-02-26T14:05:18;99159.19;;;20.54;40.48
77281;BME280;66339;47.262;17.144;2024-02-26T14:07:45;99149.25;;;20.54;40.13
77281;BME280;66339;47.262;17.144;2024-02-26T14:10:19;99153.03;;;20.53;39.94
77281;BME280;66339;47.262;17.144;2024-02-26T14:12:46;99151.47;;;20.52;40.35
77281;BME280;66339;47.262;17.144;2024-02-26T14:15:16;99152.25;;;20.53;41.67
77281;BME280;66339;47.262;17.144;2024-02-26T14:17:43;99157.63;;;20.53;43.05
77281;BME280;66339;47.262;17.144;2024-02-26T14:20:10;99157.31;;;20.54;43.67
77281;BME280;66339;47.262;17.144;2024-02-26T14:22:40;99162.69;;;20.54;44.01
77281;BME280;66339;47.262;17.144;2024-02-26T14:25:10;99157.31;;;20.54;44.27
77281;BME280;66339;47.262;17.144;2024-02-26T14:27:39;99154.63;;;20.54;44.49
77281;BME280;66339;47.262;17.144;2024-02-26T14:30:06;99154.63;;;20.54;44.67
77281;BME280;66339;47.262;17.144;2024-02-26T14:32:34;99161.59;;;20.55;44.86
77281;BME280;66339;47.262;17.144;2024-02-26T14:35:01;99158.91;;;20.55;45.02
77281;BME280;66339;47.262;17.144;2024-02-26T14:37:28;99160.78;;;20.55;45.16
77281;BME280;66339;47.262;17.144;2024-02-26T14:39:56;99159.19;;;20.54;45.31
77281;BME280;66339;47.262;17.144;2024-02-26T14:42:23;99162.69;;;20.54;45.43
77281;BME280;66339;47.262;17.144;2024-02-26T14:44:50;99161.59;;;20.55;45.56
77281;BME280;66339;47.262;17.144;2024-02-26T14:47:20;99153.03;;;20.53;45.65
77281;BME280;66339;47.262;17.144;2024-02-26T14:49:47;99158.41;;;20.53;45.79
77281;BME280;66339;47.262;17.144;2024-02-26T14:52:17;99163.78;;;20.53;45.93
77281;BME280;66339;47.262;17.144;2024-02-26T14:54:43;99167.59;;;20.52;46.08
77281;BME280;66339;47.262;17.144;2024-02-26T14:57:10;99177.53;;;20.52;46.24
77281;BME280;66339;47.262;17.144;2024-02-26T14:59:36;99165.19;;;20.51;46.42
77281;BME280;66339;47.262;17.144;2024-02-26T15:02:04;99164.41;;;20.50;47.29
77281;BME280;66339;47.262;17.144;2024-02-26T15:04:30;99167.66;;;20.47;47.50
77281;BME280;66339;47.262;17.144;2024-02-26T15:07:02;99166.41;;;20.45;47.86
77281;BME280;66339;47.262;17.144;2024-02-26T15:09:30;99171.00;;;20.44;47.99
77281;BME280;66339;47.262;17.144;2024-02-26T15:11:59;99173.19;;;20.42;47.83
77281;BME280;66339;47.262;17.144;2024-02-26T15:14:28;99174.75;;;20.43;47.66
77281;BME280;66339;47.262;17.144;2024-02-26T15:16:58;99177.44;;;20.43;47.85
77281;BME280;66339;47.262;17.144;2024-02-26T15:19:26;99177.44;;;20.43;47.83
77281;BME280;66339;47.262;17.144;2024-02-26T15:21:59;99169.38;;;20.43;48.08
77281;BME280;66339;47.262;17.144;2024-02-26T15:24:27;99171.28;;;20.43;48.16
77281;BME280;66339;47.262;17.144;2024-02-26T15:26:54;99171.00;;;20.44;48.23
77281;BME280;66339;47.262;17.144;2024-02-26T15:29:22;99179.06;;;20.44;48.44
77281;BME280;66339;47.262;17.144;2024-02-26T15:31:49;99175.25;;;20.45;48.46
77281;BME280;66339;47.262;17.144;2024-02-26T15:34:16;99177.94;;;20.45;48.46
77281;BME280;66339;47.262;17.144;2024-02-26T15:36:43;99184.91;;;20.46;48.45
77281;BME280;66339;47.262;17.144;2024-02-26T15:39:10;99191.84;;;20.47;48.45
77281;BME280;66339;47.262;17.144;2024-02-26T15:41:36;99191.06;;;20.47;48.45
77281;BME280;66339;47.262;17.144;2024-02-26T15:44:03;99191.84;;;20.47;48.48
77281;BME280;66339;47.262;17.144;2024-02-26T15:46:41;99200.22;;;20.46;48.65
77281;BME280;66339;47.262;17.144;2024-02-26T15:49:08;99201.00;;;20.46;48.69
77281;BME280;66339;47.262;17.144;2024-02-26T15:51:40;99197.22;;;20.47;48.74
77281;BME280;66339;47.262;17.144;2024-02-26T15:54:10;99207.97;;;20.47;48.87
77281;BME280;66339;47.262;17.144;2024-02-26T15:56:41;99210.38;;;20.49;48.88
77281;BME280;66339;47.262;17.144;2024-02-26T15:59:17;99210.66;;;20.47;48.89
77281;BME280;66339;47.262;17.144;2024-02-26T16:01:44;99223.50;;;20.50;49.04
77281;BME280;66339;47.262;17.144;2024-02-26T16:04:18;99216.00;;;20.47;48.83
77281;BME280;66339;47.262;17.144;2024-02-26T16:06:48;99222.50;;;20.46;48.34
77281;BME280;66339;47.262;17.144;2024-02-26T16:09:16;99227.88;;;20.46;48.39
77281;BME280;66339;47.262;17.144;2024-02-26T16:11:42;99228.19;;;20.45;48.68
77281;BME280;66339;47.262;17.144;2024-02-26T16:14:12;99224.72;;;20.44;49.08
77281;BME280;66339;47.262;17.144;2024-02-26T16:16:49;99227.69;;;20.43;49.01
77281;BME280;66339;47.262;17.144;2024-02-26T16:19:18;99232.28;;;20.42;48.97
77281;BME280;66339;47.262;17.144;2024-02-26T16:21:50;99243.00;;;20.42;49.05
77281;BME280;66339;47.262;17.144;2024-02-26T16:24:20;99245.22;;;20.40;49.11
77281;BME280;66339;47.262;17.144;2024-02-26T16:26:51;99245.53;;;20.39;49.26
77281;BME280;66339;47.262;17.144;2024-02-26T16:29:18;99243.16;;;20.37;49.28
77281;BME280;66339;47.262;17.144;2024-02-26T16:31:44;99249.62;;;20.36;49.21
77281;BME280;66339;47.262;17.144;2024-02-26T16:34:19;99255.00;;;20.36;49.24
77281;BME280;66339;47.262;17.144;2024-02-26T16:36:50;99260.38;;;20.36;49.09
77281;BME280;66339;47.262;17.144;2024-02-26T16:39:21;99250.25;;;20.33;49.31
77281;BME280;66339;47.262;17.144;2024-02-26T16:41:54;99260.97;;;20.33;49.53
77281;BME280;66339;47.262;17.144;2024-02-26T16:50:09;99269.50;;;20.35;49.65
77281;BME280;66339;47.262;17.144;2024-02-26T16:52:39;99267.94;;;20.34;49.90
77281;BME280;66339;47.262;17.144;2024-02-26T16:55:06;99272.97;;;20.35;49.99
77281;BME280;66339;47.262;17.144;2024-02-26T16:57:36;99276.50;;;20.36;50.13
77281;BME280;66339;47.262;17.144;2024-02-26T17:00:03;99288.81;;;20.37;50.15
77281;BME280;66339;47.262;17.144;2024-02-26T17:05:16;99285.03;;;20.38;50.19
77281;BME280;66339;47.262;17.144;2024-02-26T17:07:43;99287.22;;;20.36;50.22
77281;BME280;66339;47.262;17.144;2024-02-26T17:10:10;99288.50;;;20.39;50.05
77281;BME280;66339;47.262;17.144;2024-02-26T17:12:40;99291.97;;;20.39;50.14
77281;BME280;66339;47.262;17.144;2024-02-26T17:15:07;99289.59;;;20.38;50.16
77281;BME280;66339;47.262;17.144;2024-02-26T17:17:34;99293.38;;;20.37;50.31
77281;BME280;66339;47.262;17.144;2024-02-26T17:20:03;99292.59;;;20.36;50.31
77281;BME280;66339;47.262;17.144;2024-02-26T17:22:31;99300.34;;;20.38;50.41
77281;BME280;66339;47.262;17.144;2024-02-26T17:24:57;99292.59;;;20.36;50.41
77281;BME280;66339;47.262;17.144;2024-02-26T17:27:24;99307.09;;;20.35;50.88
77281;BME280;66339;47.262;17.144;2024-02-26T17:29:51;99301.75;;;20.35;50.81
77281;BME280;66339;47.262;17.144;2024-02-26T17:32:20;99304.12;;;20.37;50.68
77281;BME280;66339;47.262;17.144;2024-02-26T17:34:49;99303.81;;;20.38;50.63
77281;BME280;66339;47.262;17.144;2024-02-26T17:37:16;99312.66;;;20.39;50.60
77281;BME280;66339;47.262;17.144;2024-02-26T17:39:46;99320.44;;;20.40;50.52
77281;BME280;66339;47.262;17.144;2024-02-26T17:42:12;99313.44;;;20.39;50.56
77281;BME280;66339;47.262;17.144;2024-02-26T17:44:39;99322.00;;;20.41;49.99
77281;BME280;66339;47.262;17.144;2024-02-26T17:47:06;99318.22;;;20.42;49.94
77281;BME280;66339;47.262;17.144;2024-02-26T17:49:36;99313.63;;;20.43;49.67
77281;BME280;66339;47.262;17.144;2024-02-26T17:52:04;99320.91;;;20.42;49.59
77281;BME280;66339;47.262;17.144;2024-02-26T17:54:37;99323.59;;;20.42;49.49
77281;BME280;66339;47.262;17.144;2024-02-26T17:57:07;99339.72;;;20.42;49.46
77281;BME280;66339;47.262;17.144;2024-02-26T17:59:33;99339.72;;;20.42;49.49
77281;BME280;66339;47.262;17.144;2024-02-26T18:02:00;99339.72;;;20.42;49.50
77281;BME280;66339;47.262;17.144;2024-02-26T18:04:27;99343.19;;;20.43;49.46
77281;BME280;66339;47.262;17.144;2024-02-26T18:06:54;99342.38;;;20.42;49.44
77281;BME280;66339;47.262;17.144;2024-02-26T18:09:24;99353.44;;;20.41;49.45
77281;BME280;66339;47.262;17.144;2024-02-26T18:11:52;99347.28;;;20.40;49.36
77281;BME280;66339;47.262;17.144;2024-02-26T18:14:19;99355.63;;;20.39;49.62
77281;BME280;66339;47.262;17.144;2024-02-26T18:16:46;99352.94;;;20.39;49.69
77281;BME280;66339;47.262;17.144;2024-02-26T18:19:15;99356.44;;;20.39;49.80
77281;BME280;66339;47.262;17.144;2024-02-26T18:21:42;99362.31;;;20.41;49.93
77281;BME280;66339;47.262;17.144;2024-02-26T18:24:09;99371.16;;;20.42;50.18
77281;BME280;66339;47.262;17.144;2024-02-26T18:26:35;99373.03;;;20.41;50.30
77281;BME280;66339;47.262;17.144;2024-02-26T18:29:02;99375.72;;;20.41;50.64
77281;BME280;66339;47.262;17.144;2024-02-26T18:31:28;99375.41;;;20.43;50.71
77281;BME280;66339;47.262;17.144;2024-02-26T18:33:55;99371.94;;;20.42;50.74
77281;BME280;66339;47.262;17.144;2024-02-26T18:36:25;99374.63;;;20.42;50.70
77281;BME280;66339;47.262;17.144;2024-02-26T18:38:52;99378.09;;;20.43;50.62
77281;BME280;66339;47.262;17.144;2024-02-26T18:41:19;99381.88;;;20.42;50.67
77281;BME280;66339;47.262;17.144;2024-02-26T18:43:47;99374.63;;;20.42;50.51
77281;BME280;66339;47.262;17.144;2024-02-26T18:46:13;99377.31;;;20.42;50.36
77281;BME280;66339;47.262;17.144;2024-02-26T18:48:40;99381.09;;;20.41;50.74
77281;BME280;66339;47.262;17.144;2024-02-26T18:51:07;99378.41;;;20.41;50.65
77281;BME280;66339;47.262;17.144;2024-02-26T18:53:33;99375.72;;;20.41;50.52
77281;BME280;66339;47.262;17.144;2024-02-26T18:56:03;99379.19;;;20.42;50.51
77281;BME280;66339;47.262;17.144;2024-02-26T18:58:36;99374.16;;;20.40;50.17
77281;BME280;66339;47.262;17.144;2024-02-26T19:01:07;99383.28;;;20.39;50.56